sensor_id;sensor_type;location;lat;lon;timestamp;temperature;humidity
9177;DHT22;4623;54.310;10.112;2022-12-07T00:01:19;3.50;99.90
9177;DHT22;4623;54.310;10.112;2022-12-07T00:03:46;3.60;99.90
9177;DHT22;4623;54.310;10.112;2022-12-07T00:06:14;3.60;99.90
9177;DHT22;4623;54.310;10.112;2022-12-07T00:08:40;3.70;99.90
9177;DHT22;4623;54.310;10.112;2022-12-07T00:11:07;3.70;99.90
9177;DHT22;4623;54.310;10.112;2022-12-07T00:13:34;3.70;99.90
9177;DHT22;4623;54.310;10.112;2022-12-07T00:16:01;3.70;99.90
9177;DHT22;4623;54.310;10.112;2022-12-07T00:18:27;3.70;99.90
9177;DHT22;4623;54.310;10.112;2022-12-07T00:20:52;3.70;99.90
9177;DHT22;4623;54.310;10.112;2022-12-07T00:23:18;3.70;99.90
9177;DHT22;4623;54.310;10.112;2022-12-07T00:25:43;3.70;99.90
9177;DHT22;4623;54.310;10.112;2022-12-07T00:28:09;3.80;99.90
9177;DHT22;4623;54.310;10.112;2022-12-07T00:30:36;3.80;99.90
9177;DHT22;4623;54.310;10.112;2022-12-07T00:33:01;3.70;99.90
9177;DHT22;4623;54.310;10.112;2022-12-07T00:35:26;3.80;99.90
9177;DHT22;4623;54.310;10.112;2022-12-07T00:37:52;3.90;99.90
9177;DHT22;4623;54.310;10.112;2022-12-07T00:40:17;3.90;99.90
9177;DHT22;4623;54.310;10.112;2022-12-07T00:42:43;3.90;99.90
9177;DHT22;4623;54.310;10.112;2022-12-07T00:45:08;3.90;99.90
9177;DHT22;4623;54.310;10.112;2022-12-07T00:47:34;3.90;99.90
9177;DHT22;4623;54.310;10.112;2022-12-07T00:49:59;4.00;99.90
9177;DHT22;4623;54.310;10.112;2022-12-07T00:52:25;3.90;99.90
9177;DHT22;4623;54.310;10.112;2022-12-07T00:54:50;4.00;99.90
9177;DHT22;4623;54.310;10.112;2022-12-07T00:57:16;4.00;99.90
9177;DHT22;4623;54.310;10.112;2022-12-07T00:59:41;4.10;99.90
9177;DHT22;4623;54.310;10.112;2022-12-07T01:02:07;4.00;99.90
9177;DHT22;4623;54.310;10.112;2022-12-07T01:04:34;4.10;99.90
9177;DHT22;4623;54.310;10.112;2022-12-07T01:06:59;4.10;99.90
9177;DHT22;4623;54.310;10.112;2022-12-07T01:09:25;4.00;99.90
9177;DHT22;4623;54.310;10.112;2022-12-07T01:11:50;4.00;99.90
9177;DHT22;4623;54.310;10.112;2022-12-07T01:14:16;4.00;99.90
9177;DHT22;4623;54.310;10.112;2022-12-07T01:16:41;4.10;99.90
9177;DHT22;4623;54.310;10.112;2022-12-07T01:19:06;4.10;99.90
9177;DHT22;4623;54.310;10.112;2022-12-07T01:21:34;4.10;99.90
9177;DHT22;4623;54.310;10.112;2022-12-07T01:24:01;4.10;99.90
9177;DHT22;4623;54.310;10.112;2022-12-07T01:26:27;4.10;99.90
9177;DHT22;4623;54.310;10.112;2022-12-07T01:28:53;4.00;99.90
9177;DHT22;4623;54.310;10.112;2022-12-07T01:31:22;4.10;99.90
9177;DHT22;4623;54.310;10.112;2022-12-07T01:33:52;4.10;99.90
9177;DHT22;4623;54.310;10.112;2022-12-07T01:36:23;4.10;99.90
9177;DHT22;4623;54.310;10.112;2022-12-07T01:38:51;4.10;99.90
9177;DHT22;4623;54.310;10.112;2022-12-07T01:41:19;4.20;99.90
9177;DHT22;4623;54.310;10.112;2022-12-07T01:46:55;4.30;99.90
9177;DHT22;4623;54.310;10.112;2022-12-07T01:49:34;4.30;99.90
9177;DHT22;4623;54.310;10.112;2022-12-07T01:52:28;4.30;99.90
9177;DHT22;4623;54.310;10.112;2022-12-07T01:54:58;4.20;99.90
9177;DHT22;4623;54.310;10.112;2022-12-07T01:57:25;4.20;99.90
9177;DHT22;4623;54.310;10.112;2022-12-07T01:59:52;4.30;99.90
9177;DHT22;4623;54.310;10.112;2022-12-07T02:02:22;4.20;99.90
9177;DHT22;4623;54.310;10.112;2022-12-07T02:04:48;4.20;99.90
9177;DHT22;4623;54.310;10.112;2022-12-07T02:07:14;4.20;99.90
9177;DHT22;4623;54.310;10.112;2022-12-07T02:09:40;4.20;99.90
9177;DHT22;4623;54.310;10.112;2022-12-07T02:12:06;4.20;99.90
9177;DHT22;4623;54.310;10.112;2022-12-07T02:14:31;4.10;99.90
9177;DHT22;4623;54.310;10.112;2022-12-07T02:25:42;4.00;99.90
9177;DHT22;4623;54.310;10.112;2022-12-07T02:28:31;3.90;99.90
9177;DHT22;4623;54.310;10.112;2022-12-07T02:31:10;3.90;99.90
9177;DHT22;4623;54.310;10.112;2022-12-07T02:33:43;3.90;99.90
9177;DHT22;4623;54.310;10.112;2022-12-07T02:36:15;3.90;99.90
9177;DHT22;4623;54.310;10.112;2022-12-07T02:38:52;3.80;99.90
9177;DHT22;4623;54.310;10.112;2022-12-07T02:41:49;3.80;99.90
9177;DHT22;4623;54.310;10.112;2022-12-07T02:44:23;3.70;99.90
9177;DHT22;4623;54.310;10.112;2022-12-07T02:46:57;3.70;99.90
9177;DHT22;4623;54.310;10.112;2022-12-07T02:49:24;3.70;99.90
9177;DHT22;4623;54.310;10.112;2022-12-07T02:51:52;3.60;99.90
9177;DHT22;4623;54.310;10.112;2022-12-07T02:54:19;3.60;99.90
9177;DHT22;4623;54.310;10.112;2022-12-07T02:56:53;3.50;99.90
9177;DHT22;4623;54.310;10.112;2022-12-07T02:59:46;3.50;99.90
9177;DHT22;4623;54.310;10.112;2022-12-07T03:02:24;3.50;99.90
9177;DHT22;4623;54.310;10.112;2022-12-07T03:04:53;3.50;99.90
9177;DHT22;4623;54.310;10.112;2022-12-07T03:07:34;3.40;99.90
9177;DHT22;4623;54.310;10.112;2022-12-07T03:10:19;3.40;99.90
9177;DHT22;4623;54.310;10.112;2022-12-07T03:13:02;3.50;99.90
9177;DHT22;4623;54.310;10.112;2022-12-07T03:15:46;3.50;99.90
9177;DHT22;4623;54.310;10.112;2022-12-07T03:18:18;3.40;99.90
9177;DHT22;4623;54.310;10.112;2022-12-07T03:20:44;3.40;99.90
9177;DHT22;4623;54.310;10.112;2022-12-07T03:23:12;3.40;99.90
9177;DHT22;4623;54.310;10.112;2022-12-07T03:25:49;3.40;99.90
9177;DHT22;4623;54.310;10.112;2022-12-07T03:28:19;3.50;99.90
9177;DHT22;4623;54.310;10.112;2022-12-07T03:33:22;3.50;99.90
9177;DHT22;4623;54.310;10.112;2022-12-07T03:35:55;3.50;99.90
9177;DHT22;4623;54.310;10.112;2022-12-07T03:38:31;3.50;99.90
9177;DHT22;4623;54.310;10.112;2022-12-07T03:41:09;3.50;99.90
9177;DHT22;4623;54.310;10.112;2022-12-07T03:43:37;3.50;99.90
9177;DHT22;4623;54.310;10.112;2022-12-07T03:46:27;3.40;99.90
9177;DHT22;4623;54.310;10.112;2022-12-07T03:49:18;3.40;99.90
9177;DHT22;4623;54.310;10.112;2022-12-07T03:51:54;3.40;99.90
9177;DHT22;4623;54.310;10.112;2022-12-07T03:54:32;3.30;99.90
9177;DHT22;4623;54.310;10.112;2022-12-07T03:57:00;3.30;99.90
9177;DHT22;4623;54.310;10.112;2022-12-07T03:59:27;3.20;99.90
9177;DHT22;4623;54.310;10.112;2022-12-07T04:02:02;3.10;99.90
9177;DHT22;4623;54.310;10.112;2022-12-07T04:04:28;3.20;99.90
9177;DHT22;4623;54.310;10.112;2022-12-07T04:06:54;3.30;99.90
9177;DHT22;4623;54.310;10.112;2022-12-07T04:09:20;3.40;99.90
9177;DHT22;4623;54.310;10.112;2022-12-07T04:11:46;3.50;99.90
9177;DHT22;4623;54.310;10.112;2022-12-07T04:14:11;3.40;99.90
9177;DHT22;4623;54.310;10.112;2022-12-07T04:16:52;3.30;99.90
9177;DHT22;4623;54.310;10.112;2022-12-07T04:19:20;3.40;99.90
9177;DHT22;4623;54.310;10.112;2022-12-07T04:21:46;3.30;99.90
9177;DHT22;4623;54.310;10.112;2022-12-07T04:24:13;3.30;99.90
9177;DHT22;4623;54.310;10.112;2022-12-07T04:26:40;3.20;99.90
9177;DHT22;4623;54.310;10.112;2022-12-07T04:29:05;3.20;99.90
9177;DHT22;4623;54.310;10.112;2022-12-07T04:31:31;3.20;99.90
9177;DHT22;4623;54.310;10.112;2022-12-07T04:34:29;3.20;99.90
9177;DHT22;4623;54.310;10.112;2022-12-07T04:36:55;3.20;99.90
9177;DHT22;4623;54.310;10.112;2022-12-07T04:39:26;3.10;99.90
9177;DHT22;4623;54.310;10.112;2022-12-07T04:41:53;3.10;99.90
9177;DHT22;4623;54.310;10.112;2022-12-07T04:44:20;3.20;99.90
9177;DHT22;4623;54.310;10.112;2022-12-07T04:46:46;3.10;99.90
9177;DHT22;4623;54.310;10.112;2022-12-07T04:49:13;3.10;99.90
9177;DHT22;4623;54.310;10.112;2022-12-07T04:51:39;3.10;99.90
9177;DHT22;4623;54.310;10.112;2022-12-07T04:54:05;3.00;99.90
9177;DHT22;4623;54.310;10.112;2022-12-07T04:56:31;2.90;99.90
9177;DHT22;4623;54.310;10.112;2022-12-07T04:58:56;3.00;99.90
9177;DHT22;4623;54.310;10.112;2022-12-07T05:01:23;3.00;99.90
9177;DHT22;4623;54.310;10.112;2022-12-07T05:03:49;3.10;99.90
9177;DHT22;4623;54.310;10.112;2022-12-07T05:06:14;3.10;99.90
9177;DHT22;4623;54.310;10.112;2022-12-07T05:08:41;3.00;99.90
9177;DHT22;4623;54.310;10.112;2022-12-07T05:11:08;3.00;99.90
9177;DHT22;4623;54.310;10.112;2022-12-07T05:13:34;3.00;99.90
9177;DHT22;4623;54.310;10.112;2022-12-07T05:16:00;2.90;99.90
9177;DHT22;4623;54.310;10.112;2022-12-07T05:18:25;2.80;99.90
9177;DHT22;4623;54.310;10.112;2022-12-07T05:20:51;2.80;99.90
9177;DHT22;4623;54.310;10.112;2022-12-07T05:23:17;2.80;99.90
9177;DHT22;4623;54.310;10.112;2022-12-07T05:25:43;2.80;99.90
9177;DHT22;4623;54.310;10.112;2022-12-07T05:28:09;2.80;99.90
9177;DHT22;4623;54.310;10.112;2022-12-07T05:30:34;2.80;99.90
9177;DHT22;4623;54.310;10.112;2022-12-07T05:33:00;2.80;99.90
9177;DHT22;4623;54.310;10.112;2022-12-07T05:35:25;2.90;99.90
9177;DHT22;4623;54.310;10.112;2022-12-07T05:37:51;2.90;99.90
9177;DHT22;4623;54.310;10.112;2022-12-07T05:40:17;2.80;99.90
9177;DHT22;4623;54.310;10.112;2022-12-07T05:42:44;2.80;99.90
9177;DHT22;4623;54.310;10.112;2022-12-07T05:45:09;2.70;99.90
9177;DHT22;4623;54.310;10.112;2022-12-07T05:47:35;2.70;99.90
9177;DHT22;4623;54.310;10.112;2022-12-07T05:50:01;2.60;99.90
9177;DHT22;4623;54.310;10.112;2022-12-07T05:52:27;2.50;99.90
9177;DHT22;4623;54.310;10.112;2022-12-07T05:54:52;2.50;99.90
9177;DHT22;4623;54.310;10.112;2022-12-07T05:57:18;2.50;99.90
9177;DHT22;4623;54.310;10.112;2022-12-07T05:59:44;2.50;99.90
9177;DHT22;4623;54.310;10.112;2022-12-07T06:02:14;2.50;99.90
9177;DHT22;4623;54.310;10.112;2022-12-07T06:04:42;2.50;99.90
9177;DHT22;4623;54.310;10.112;2022-12-07T06:07:08;2.50;99.90
9177;DHT22;4623;54.310;10.112;2022-12-07T06:09:34;2.50;99.90
9177;DHT22;4623;54.310;10.112;2022-12-07T06:12:00;2.40;99.90
9177;DHT22;4623;54.310;10.112;2022-12-07T06:14:44;2.40;99.90
9177;DHT22;4623;54.310;10.112;2022-12-07T06:17:11;2.50;99.90
9177;DHT22;4623;54.310;10.112;2022-12-07T06:19:37;2.50;99.90
9177;DHT22;4623;54.310;10.112;2022-12-07T06:22:03;2.50;99.90
9177;DHT22;4623;54.310;10.112;2022-12-07T06:24:30;2.50;99.90
9177;DHT22;4623;54.310;10.112;2022-12-07T06:26:56;2.50;99.90
9177;DHT22;4623;54.310;10.112;2022-12-07T06:29:21;2.50;99.90
9177;DHT22;4623;54.310;10.112;2022-12-07T06:31:47;2.50;99.90
9177;DHT22;4623;54.310;10.112;2022-12-07T06:34:18;2.50;99.90
9177;DHT22;4623;54.310;10.112;2022-12-07T06:36:44;2.50;99.90
9177;DHT22;4623;54.310;10.112;2022-12-07T06:39:10;2.50;99.90
9177;DHT22;4623;54.310;10.112;2022-12-07T06:41:36;2.50;99.90
9177;DHT22;4623;54.310;10.112;2022-12-07T06:44:03;2.60;99.90
9177;DHT22;4623;54.310;10.112;2022-12-07T06:46:29;2.60;99.90
9177;DHT22;4623;54.310;10.112;2022-12-07T06:48:55;2.50;99.90
9177;DHT22;4623;54.310;10.112;2022-12-07T06:51:20;2.60;99.90
9177;DHT22;4623;54.310;10.112;2022-12-07T06:53:46;2.60;99.90
9177;DHT22;4623;54.310;10.112;2022-12-07T06:56:11;2.70;99.90
9177;DHT22;4623;54.310;10.112;2022-12-07T06:58:36;2.70;99.90
9177;DHT22;4623;54.310;10.112;2022-12-07T07:01:02;2.70;99.90
9177;DHT22;4623;54.310;10.112;2022-12-07T07:03:28;2.70;99.90
9177;DHT22;4623;54.310;10.112;2022-12-07T07:05:54;2.80;99.90
9177;DHT22;4623;54.310;10.112;2022-12-07T07:08:19;2.80;99.90
9177;DHT22;4623;54.310;10.112;2022-12-07T07:10:45;2.80;99.90
9177;DHT22;4623;54.310;10.112;2022-12-07T07:13:10;2.70;99.90
9177;DHT22;4623;54.310;10.112;2022-12-07T07:15:37;2.70;99.90
9177;DHT22;4623;54.310;10.112;2022-12-07T07:18:03;2.70;99.90
9177;DHT22;4623;54.310;10.112;2022-12-07T07:20:29;2.60;99.90
9177;DHT22;4623;54.310;10.112;2022-12-07T07:22:54;2.70;99.90
9177;DHT22;4623;54.310;10.112;2022-12-07T07:25:20;2.70;99.90
9177;DHT22;4623;54.310;10.112;2022-12-07T07:27:46;2.70;99.90
9177;DHT22;4623;54.310;10.112;2022-12-07T07:30:12;2.80;99.90
9177;DHT22;4623;54.310;10.112;2022-12-07T07:32:38;2.80;99.90
9177;DHT22;4623;54.310;10.112;2022-12-07T07:35:04;2.90;99.90
9177;DHT22;4623;54.310;10.112;2022-12-07T07:37:30;2.90;99.90
9177;DHT22;4623;54.310;10.112;2022-12-07T07:39:55;2.90;99.90
9177;DHT22;4623;54.310;10.112;2022-12-07T07:42:21;3.00;99.90
9177;DHT22;4623;54.310;10.112;2022-12-07T07:44:47;3.10;99.90
9177;DHT22;4623;54.310;10.112;2022-12-07T07:47:13;3.10;99.90
9177;DHT22;4623;54.310;10.112;2022-12-07T07:49:38;3.20;99.90
9177;DHT22;4623;54.310;10.112;2022-12-07T07:52:05;3.20;99.90
9177;DHT22;4623;54.310;10.112;2022-12-07T07:54:31;3.20;99.90
9177;DHT22;4623;54.310;10.112;2022-12-07T07:56:56;3.30;99.90
9177;DHT22;4623;54.310;10.112;2022-12-07T07:59:22;3.30;99.90
9177;DHT22;4623;54.310;10.112;2022-12-07T08:01:48;3.30;99.90
9177;DHT22;4623;54.310;10.112;2022-12-07T08:04:13;3.40;99.90
9177;DHT22;4623;54.310;10.112;2022-12-07T08:06:39;3.50;99.90
9177;DHT22;4623;54.310;10.112;2022-12-07T08:09:04;3.60;99.90
9177;DHT22;4623;54.310;10.112;2022-12-07T08:11:31;3.70;99.90
9177;DHT22;4623;54.310;10.112;2022-12-07T08:13:56;3.70;99.90
9177;DHT22;4623;54.310;10.112;2022-12-07T08:16:22;3.80;99.90
9177;DHT22;4623;54.310;10.112;2022-12-07T08:18:47;3.80;99.90
9177;DHT22;4623;54.310;10.112;2022-12-07T08:21:14;3.80;99.90
9177;DHT22;4623;54.310;10.112;2022-12-07T08:23:40;3.70;99.90
9177;DHT22;4623;54.310;10.112;2022-12-07T08:26:08;3.80;99.90
9177;DHT22;4623;54.310;10.112;2022-12-07T08:28:34;3.80;99.90
9177;DHT22;4623;54.310;10.112;2022-12-07T08:31:01;3.80;99.90
9177;DHT22;4623;54.310;10.112;2022-12-07T08:33:27;3.90;99.90
9177;DHT22;4623;54.310;10.112;2022-12-07T08:35:52;3.90;99.90
9177;DHT22;4623;54.310;10.112;2022-12-07T08:38:18;3.90;99.90
9177;DHT22;4623;54.310;10.112;2022-12-07T08:40:43;3.90;99.90
9177;DHT22;4623;54.310;10.112;2022-12-07T08:43:09;3.80;99.90
9177;DHT22;4623;54.310;10.112;2022-12-07T08:45:34;3.80;99.90
9177;DHT22;4623;54.310;10.112;2022-12-07T08:58:07;3.70;99.90
9177;DHT22;4623;54.310;10.112;2022-12-07T09:10:29;3.90;99.90
9177;DHT22;4623;54.310;10.112;2022-12-07T09:36:29;4.20;99.90
9177;DHT22;4623;54.310;10.112;2022-12-07T09:38:54;4.20;99.90
9177;DHT22;4623;54.310;10.112;2022-12-07T09:41:21;4.10;99.90
9177;DHT22;4623;54.310;10.112;2022-12-07T09:43:48;4.20;99.90
9177;DHT22;4623;54.310;10.112;2022-12-07T09:46:15;4.20;99.90
9177;DHT22;4623;54.310;10.112;2022-12-07T09:48:43;4.20;99.90
9177;DHT22;4623;54.310;10.112;2022-12-07T09:51:22;4.30;99.90
9177;DHT22;4623;54.310;10.112;2022-12-07T09:53:50;4.40;99.90
9177;DHT22;4623;54.310;10.112;2022-12-07T09:56:17;4.30;99.90
9177;DHT22;4623;54.310;10.112;2022-12-07T09:58:45;4.40;99.90
9177;DHT22;4623;54.310;10.112;2022-12-07T10:07:08;4.20;99.90
9177;DHT22;4623;54.310;10.112;2022-12-07T10:09:33;4.20;99.90
9177;DHT22;4623;54.310;10.112;2022-12-07T10:12:11;4.20;99.90
9177;DHT22;4623;54.310;10.112;2022-12-07T10:14:39;4.20;99.90
9177;DHT22;4623;54.310;10.112;2022-12-07T10:17:38;4.20;99.90
9177;DHT22;4623;54.310;10.112;2022-12-07T10:22:37;4.10;99.90
9177;DHT22;4623;54.310;10.112;2022-12-07T10:25:18;4.10;99.90
9177;DHT22;4623;54.310;10.112;2022-12-07T10:27:56;4.20;99.90
9177;DHT22;4623;54.310;10.112;2022-12-07T10:30:22;4.20;99.90
9177;DHT22;4623;54.310;10.112;2022-12-07T10:32:47;4.20;99.90
9177;DHT22;4623;54.310;10.112;2022-12-07T10:35:25;4.20;99.90
9177;DHT22;4623;54.310;10.112;2022-12-07T10:37:52;4.20;99.90
9177;DHT22;4623;54.310;10.112;2022-12-07T10:43:05;4.20;99.90
9177;DHT22;4623;54.310;10.112;2022-12-07T10:45:31;4.20;99.90
9177;DHT22;4623;54.310;10.112;2022-12-07T10:51:02;4.20;99.90
9177;DHT22;4623;54.310;10.112;2022-12-07T10:53:56;4.20;99.90
9177;DHT22;4623;54.310;10.112;2022-12-07T10:56:41;4.40;99.90
9177;DHT22;4623;54.310;10.112;2022-12-07T10:59:38;4.50;99.90
9177;DHT22;4623;54.310;10.112;2022-12-07T11:04:59;4.50;99.90
9177;DHT22;4623;54.310;10.112;2022-12-07T11:14:16;4.90;99.90
9177;DHT22;4623;54.310;10.112;2022-12-07T11:16:51;5.20;99.90
9177;DHT22;4623;54.310;10.112;2022-12-07T11:19:28;5.50;99.90
9177;DHT22;4623;54.310;10.112;2022-12-07T11:21:58;5.30;99.90
9177;DHT22;4623;54.310;10.112;2022-12-07T11:27:07;5.30;99.90
9177;DHT22;4623;54.310;10.112;2022-12-07T11:29:47;5.40;99.90
9177;DHT22;4623;54.310;10.112;2022-12-07T11:32:45;5.50;99.90
9177;DHT22;4623;54.310;10.112;2022-12-07T11:35:38;5.40;99.90
9177;DHT22;4623;54.310;10.112;2022-12-07T11:38:15;5.50;99.90
9177;DHT22;4623;54.310;10.112;2022-12-07T11:40:44;5.50;99.90
9177;DHT22;4623;54.310;10.112;2022-12-07T11:43:16;5.50;99.90
9177;DHT22;4623;54.310;10.112;2022-12-07T11:45:46;5.50;99.90
9177;DHT22;4623;54.310;10.112;2022-12-07T11:50:57;5.70;99.90
9177;DHT22;4623;54.310;10.112;2022-12-07T11:53:32;5.50;99.90
9177;DHT22;4623;54.310;10.112;2022-12-07T11:56:13;5.50;99.90
9177;DHT22;4623;54.310;10.112;2022-12-07T11:58:56;5.50;99.90
9177;DHT22;4623;54.310;10.112;2022-12-07T12:06:41;5.50;99.90
9177;DHT22;4623;54.310;10.112;2022-12-07T12:20:50;5.50;99.90
9177;DHT22;4623;54.310;10.112;2022-12-07T12:23:20;5.40;99.90
9177;DHT22;4623;54.310;10.112;2022-12-07T12:25:50;5.30;99.90
9177;DHT22;4623;54.310;10.112;2022-12-07T12:31:16;5.40;99.90
9177;DHT22;4623;54.310;10.112;2022-12-07T12:33:59;5.30;99.90
9177;DHT22;4623;54.310;10.112;2022-12-07T12:36:42;5.20;99.90
9177;DHT22;4623;54.310;10.112;2022-12-07T12:50:18;5.20;99.90
9177;DHT22;4623;54.310;10.112;2022-12-07T12:53:12;5.30;99.90
9177;DHT22;4623;54.310;10.112;2022-12-07T13:03:53;5.20;99.90
9177;DHT22;4623;54.310;10.112;2022-12-07T13:08:53;5.20;99.90
9177;DHT22;4623;54.310;10.112;2022-12-07T13:11:28;5.00;99.90
9177;DHT22;4623;54.310;10.112;2022-12-07T13:16:59;5.00;99.90
9177;DHT22;4623;54.310;10.112;2022-12-07T13:25:05;4.90;99.90
9177;DHT22;4623;54.310;10.112;2022-12-07T13:27:34;4.70;99.90
9177;DHT22;4623;54.310;10.112;2022-12-07T13:30:00;4.60;99.90
9177;DHT22;4623;54.310;10.112;2022-12-07T13:32:28;4.50;99.90
9177;DHT22;4623;54.310;10.112;2022-12-07T13:34:54;4.40;99.90
9177;DHT22;4623;54.310;10.112;2022-12-07T13:37:26;4.40;99.90
9177;DHT22;4623;54.310;10.112;2022-12-07T13:39:58;4.40;99.90
9177;DHT22;4623;54.310;10.112;2022-12-07T13:42:32;4.30;99.90
9177;DHT22;4623;54.310;10.112;2022-12-07T13:45:01;4.30;99.90
9177;DHT22;4623;54.310;10.112;2022-12-07T13:47:53;4.30;99.90
9177;DHT22;4623;54.310;10.112;2022-12-07T13:50:31;4.40;99.90
9177;DHT22;4623;54.310;10.112;2022-12-07T13:52:58;4.30;99.90
9177;DHT22;4623;54.310;10.112;2022-12-07T13:55:24;4.30;99.90
9177;DHT22;4623;54.310;10.112;2022-12-07T13:57:51;4.30;99.90
9177;DHT22;4623;54.310;10.112;2022-12-07T14:05:26;4.20;99.90
9177;DHT22;4623;54.310;10.112;2022-12-07T14:08:03;4.10;99.90
9177;DHT22;4623;54.310;10.112;2022-12-07T14:10:34;4.00;99.90
9177;DHT22;4623;54.310;10.112;2022-12-07T14:13:01;3.90;99.90
9177;DHT22;4623;54.310;10.112;2022-12-07T14:15:30;3.80;99.90
9177;DHT22;4623;54.310;10.112;2022-12-07T14:17:57;3.80;99.90
9177;DHT22;4623;54.310;10.112;2022-12-07T14:22:59;3.90;99.90
9177;DHT22;4623;54.310;10.112;2022-12-07T14:25:26;3.80;99.90
9177;DHT22;4623;54.310;10.112;2022-12-07T14:27:57;3.80;99.90
9177;DHT22;4623;54.310;10.112;2022-12-07T14:30:29;3.80;99.90
9177;DHT22;4623;54.310;10.112;2022-12-07T14:33:01;3.90;99.90
9177;DHT22;4623;54.310;10.112;2022-12-07T14:35:27;3.90;99.90
9177;DHT22;4623;54.310;10.112;2022-12-07T14:37:52;3.90;99.90
9177;DHT22;4623;54.310;10.112;2022-12-07T14:40:23;3.90;99.90
9177;DHT22;4623;54.310;10.112;2022-12-07T14:42:51;3.90;99.90
9177;DHT22;4623;54.310;10.112;2022-12-07T14:45:21;4.00;99.90
9177;DHT22;4623;54.310;10.112;2022-12-07T14:47:47;3.90;99.90
9177;DHT22;4623;54.310;10.112;2022-12-07T14:50:15;4.00;99.90
9177;DHT22;4623;54.310;10.112;2022-12-07T14:52:42;3.90;99.90
9177;DHT22;4623;54.310;10.112;2022-12-07T14:55:29;3.90;99.90
9177;DHT22;4623;54.310;10.112;2022-12-07T14:57:55;3.80;99.90
9177;DHT22;4623;54.310;10.112;2022-12-07T15:00:23;3.80;99.90
9177;DHT22;4623;54.310;10.112;2022-12-07T15:02:50;3.70;99.90
9177;DHT22;4623;54.310;10.112;2022-12-07T15:05:16;3.60;99.90
9177;DHT22;4623;54.310;10.112;2022-12-07T15:07:42;3.60;99.90
9177;DHT22;4623;54.310;10.112;2022-12-07T15:10:29;3.60;99.90
9177;DHT22;4623;54.310;10.112;2022-12-07T15:13:01;3.50;99.90
9177;DHT22;4623;54.310;10.112;2022-12-07T15:15:46;3.60;99.90
9177;DHT22;4623;54.310;10.112;2022-12-07T15:18:12;3.60;99.90
9177;DHT22;4623;54.310;10.112;2022-12-07T15:20:38;3.60;99.90
9177;DHT22;4623;54.310;10.112;2022-12-07T15:23:04;3.50;99.90
9177;DHT22;4623;54.310;10.112;2022-12-07T15:25:29;3.40;99.90
9177;DHT22;4623;54.310;10.112;2022-12-07T15:27:55;3.40;99.90
9177;DHT22;4623;54.310;10.112;2022-12-07T15:30:20;3.50;99.90
9177;DHT22;4623;54.310;10.112;2022-12-07T15:32:50;3.60;99.90
9177;DHT22;4623;54.310;10.112;2022-12-07T15:35:15;3.60;99.90
9177;DHT22;4623;54.310;10.112;2022-12-07T15:37:41;3.60;99.90
9177;DHT22;4623;54.310;10.112;2022-12-07T15:40:07;3.50;99.90
9177;DHT22;4623;54.310;10.112;2022-12-07T15:42:32;3.40;99.90
9177;DHT22;4623;54.310;10.112;2022-12-07T15:44:58;3.40;99.90
9177;DHT22;4623;54.310;10.112;2022-12-07T15:47:34;3.40;99.90
9177;DHT22;4623;54.310;10.112;2022-12-07T15:50:02;3.40;99.90
9177;DHT22;4623;54.310;10.112;2022-12-07T15:52:28;3.30;99.90
9177;DHT22;4623;54.310;10.112;2022-12-07T15:54:53;3.40;99.90
9177;DHT22;4623;54.310;10.112;2022-12-07T15:57:19;3.40;99.90
9177;DHT22;4623;54.310;10.112;2022-12-07T15:59:44;3.50;99.90
9177;DHT22;4623;54.310;10.112;2022-12-07T16:02:10;3.60;99.90
9177;DHT22;4623;54.310;10.112;2022-12-07T16:04:36;3.50;99.90
9177;DHT22;4623;54.310;10.112;2022-12-07T16:07:02;3.40;99.90
9177;DHT22;4623;54.310;10.112;2022-12-07T16:09:28;3.40;99.90
9177;DHT22;4623;54.310;10.112;2022-12-07T16:11:53;3.50;99.90
9177;DHT22;4623;54.310;10.112;2022-12-07T16:14:19;3.50;99.90
9177;DHT22;4623;54.310;10.112;2022-12-07T16:16:45;3.50;99.90
9177;DHT22;4623;54.310;10.112;2022-12-07T16:19:10;3.60;99.90
9177;DHT22;4623;54.310;10.112;2022-12-07T16:21:36;3.60;99.90
9177;DHT22;4623;54.310;10.112;2022-12-07T16:24:02;3.50;99.90
9177;DHT22;4623;54.310;10.112;2022-12-07T16:26:28;3.50;99.90
9177;DHT22;4623;54.310;10.112;2022-12-07T16:28:54;3.50;99.90
9177;DHT22;4623;54.310;10.112;2022-12-07T16:31:23;3.40;99.90
9177;DHT22;4623;54.310;10.112;2022-12-07T16:33:51;3.40;99.90
9177;DHT22;4623;54.310;10.112;2022-12-07T16:36:18;3.30;99.90
9177;DHT22;4623;54.310;10.112;2022-12-07T16:38:44;3.30;99.90
9177;DHT22;4623;54.310;10.112;2022-12-07T16:41:10;3.30;99.90
9177;DHT22;4623;54.310;10.112;2022-12-07T16:43:36;3.40;99.90
9177;DHT22;4623;54.310;10.112;2022-12-07T16:46:03;3.40;99.90
9177;DHT22;4623;54.310;10.112;2022-12-07T16:48:28;3.40;99.90
9177;DHT22;4623;54.310;10.112;2022-12-07T16:50:54;3.50;99.90
9177;DHT22;4623;54.310;10.112;2022-12-07T16:53:21;3.50;99.90
9177;DHT22;4623;54.310;10.112;2022-12-07T16:55:49;3.50;99.90
9177;DHT22;4623;54.310;10.112;2022-12-07T17:08:16;3.30;99.90
9177;DHT22;4623;54.310;10.112;2022-12-07T17:10:43;3.30;99.90
9177;DHT22;4623;54.310;10.112;2022-12-07T17:13:09;3.30;99.90
9177;DHT22;4623;54.310;10.112;2022-12-07T17:16:01;3.30;99.90
9177;DHT22;4623;54.310;10.112;2022-12-07T17:18:33;3.30;99.90
9177;DHT22;4623;54.310;10.112;2022-12-07T17:21:07;3.40;99.90
9177;DHT22;4623;54.310;10.112;2022-12-07T17:23:34;3.30;99.90
9177;DHT22;4623;54.310;10.112;2022-12-07T17:26:09;3.20;99.90
9177;DHT22;4623;54.310;10.112;2022-12-07T17:28:35;3.00;99.90
9177;DHT22;4623;54.310;10.112;2022-12-07T17:31:00;3.00;99.90
9177;DHT22;4623;54.310;10.112;2022-12-07T17:33:26;3.00;99.90
9177;DHT22;4623;54.310;10.112;2022-12-07T17:35:51;3.10;99.90
9177;DHT22;4623;54.310;10.112;2022-12-07T17:38:17;3.20;99.90
9177;DHT22;4623;54.310;10.112;2022-12-07T17:40:42;3.20;99.90
9177;DHT22;4623;54.310;10.112;2022-12-07T17:43:08;3.30;99.90
9177;DHT22;4623;54.310;10.112;2022-12-07T17:45:35;3.30;99.90
9177;DHT22;4623;54.310;10.112;2022-12-07T17:48:01;3.30;99.90
9177;DHT22;4623;54.310;10.112;2022-12-07T17:50:26;3.30;99.90
9177;DHT22;4623;54.310;10.112;2022-12-07T17:53:11;3.30;99.90
9177;DHT22;4623;54.310;10.112;2022-12-07T17:55:37;3.30;99.90
9177;DHT22;4623;54.310;10.112;2022-12-07T17:58:02;3.20;99.90
9177;DHT22;4623;54.310;10.112;2022-12-07T18:00:28;3.20;99.90
9177;DHT22;4623;54.310;10.112;2022-12-07T18:02:54;3.30;99.90
9177;DHT22;4623;54.310;10.112;2022-12-07T18:05:20;3.20;99.90
9177;DHT22;4623;54.310;10.112;2022-12-07T18:07:45;3.20;99.90
9177;DHT22;4623;54.310;10.112;2022-12-07T18:10:11;3.20;99.90
9177;DHT22;4623;54.310;10.112;2022-12-07T18:12:37;3.20;99.90
9177;DHT22;4623;54.310;10.112;2022-12-07T18:15:05;3.20;99.90
9177;DHT22;4623;54.310;10.112;2022-12-07T18:17:30;3.20;99.90
9177;DHT22;4623;54.310;10.112;2022-12-07T18:19:56;3.20;99.90
9177;DHT22;4623;54.310;10.112;2022-12-07T18:22:21;3.20;99.90
9177;DHT22;4623;54.310;10.112;2022-12-07T18:24:47;3.20;99.90
9177;DHT22;4623;54.310;10.112;2022-12-07T18:27:12;3.20;99.90
9177;DHT22;4623;54.310;10.112;2022-12-07T18:29:37;3.30;99.90
9177;DHT22;4623;54.310;10.112;2022-12-07T18:32:03;3.20;99.90
9177;DHT22;4623;54.310;10.112;2022-12-07T18:34:29;3.20;99.90
9177;DHT22;4623;54.310;10.112;2022-12-07T18:36:55;3.20;99.90
9177;DHT22;4623;54.310;10.112;2022-12-07T18:39:21;3.30;99.90
9177;DHT22;4623;54.310;10.112;2022-12-07T18:41:46;3.30;99.90
9177;DHT22;4623;54.310;10.112;2022-12-07T18:44:13;3.30;99.90
9177;DHT22;4623;54.310;10.112;2022-12-07T18:46:39;3.30;99.90
9177;DHT22;4623;54.310;10.112;2022-12-07T18:49:07;3.30;99.90